Time;durP1;ratioP1;P1;durP2;ratioP2;P2;SDS_P1;SDS_P2;PMS_P1;PMS_P2;Temp;Humidity;BMP_temperature;BMP_pressure;BME280_temperature;BME280_humidity;BME280_pressure;Samples;Min_cycle;Max_cycle;Signal;HPM_P1;HPM_P2
2022/10/16 00:00:30;;;;;;;;;;;12.60;64.60;;;;;;5044603;28;87992;-36
2022/10/16 00:02:55;;;;;;;;;;;12.60;64.40;;;;;;5045558;28;86558;-36
2022/10/16 00:05:21;;;;;;;;;;;12.60;64.40;;;;;;5045271;28;87101;-36
2022/10/16 00:07:46;;;;;;;;;;;12.60;64.40;;;;;;5043100;28;88422;-36
2022/10/16 00:10:12;;;;;;;;;;;12.50;64.50;;;;;;5047580;28;88212;-36
2022/10/16 00:12:37;;;;;;;;;;;12.50;64.30;;;;;;5044518;28;88097;-36
2022/10/16 00:15:03;;;;;;;;;;;12.50;64.50;;;;;;5044916;28;87182;-36
2022/10/16 00:17:29;;;;;;;;;;;12.50;64.50;;;;;;5044783;28;87431;-36
2022/10/16 00:19:55;;;;;;;;;;;12.50;64.40;;;;;;5044690;28;88193;-36
2022/10/16 00:22:20;;;;;;;;;;;12.50;64.40;;;;;;5044726;28;87140;-36
2022/10/16 00:24:46;;;;;;;;;;;12.50;64.20;;;;;;5044317;28;87554;-36
2022/10/16 00:27:11;;;;;;;;;;;12.40;64.30;;;;;;5044939;28;87293;-36
2022/10/16 00:29:37;;;;;;;;;;;12.40;64.20;;;;;;5044682;28;87058;-36
2022/10/16 00:32:02;;;;;;;;;;;12.40;64.20;;;;;;5047269;28;87417;-36
2022/10/16 00:34:28;;;;;;;;;;;12.40;64.30;;;;;;5044036;28;88081;-36
2022/10/16 00:36:53;;;;;;;;;;;12.40;64.30;;;;;;5044514;28;88476;-36
2022/10/16 00:39:19;;;;;;;;;;;12.40;64.30;;;;;;5044093;28;87241;-36
2022/10/16 00:41:45;;;;;;;;;;;12.40;64.20;;;;;;5044390;28;87090;-36
2022/10/16 00:44:29;;;;;;;;;;;12.40;64.40;;;;;;5044586;28;86929;-37
2022/10/16 00:46:54;;;;;;;;;;;12.40;64.40;;;;;;5043778;27;87228;-36
2022/10/16 00:49:20;;;;;;;;;;;12.40;64.40;;;;;;5044326;28;87056;-36
2022/10/16 00:51:53;;;;;;;;;;;12.40;64.30;;;;;;5044886;27;87517;-36
2022/10/16 00:54:21;;;;;;;;;;;12.30;64.20;;;;;;5046497;28;87777;-36
2022/10/16 00:56:47;;;;;;;;;;;12.30;64.20;;;;;;5044369;28;87404;-36
2022/10/16 00:59:19;;;;;;;;;;;12.30;64.30;;;;;;5043191;28;88484;-36
2022/10/16 01:01:44;;;;;;;;;;;12.30;64.30;;;;;;5044132;28;87085;-36
2022/10/16 01:04:10;;;;;;;;;;;12.30;64.20;;;;;;5044257;28;87577;-36
2022/10/16 01:06:38;;;;;;;;;;;12.30;64.20;;;;;;5043412;28;87993;-37
2022/10/16 01:09:07;;;;;;;;;;;12.30;64.30;;;;;;5044250;28;87017;-36
2022/10/16 01:11:32;;;;;;;;;;;12.30;64.30;;;;;;5044205;28;87455;-36
2022/10/16 01:14:00;;;;;;;;;;;12.20;64.20;;;;;;5043882;28;87335;-36
2022/10/16 01:16:34;;;;;;;;;;;12.20;64.20;;;;;;5046989;27;86320;-37
2022/10/16 01:19:06;;;;;;;;;;;12.20;64.20;;;;;;5043421;28;88090;-36
2022/10/16 01:21:34;;;;;;;;;;;12.20;64.10;;;;;;5043851;28;87029;-36
2022/10/16 01:24:09;;;;;;;;;;;12.20;64.10;;;;;;5042715;27;87877;-36
2022/10/16 01:26:40;;;;;;;;;;;12.20;64.20;;;;;;5043659;28;88001;-36
2022/10/16 01:29:14;;;;;;;;;;;12.10;64.10;;;;;;5043654;28;87100;-36
2022/10/16 01:31:41;;;;;;;;;;;12.10;64.20;;;;;;5043656;27;87447;-36
2022/10/16 01:34:13;;;;;;;;;;;12.10;64.20;;;;;;5043184;28;88026;-36
2022/10/16 01:36:50;;;;;;;;;;;12.10;64.20;;;;;;5043687;28;86992;-36
2022/10/16 01:39:18;;;;;;;;;;;12.10;64.10;;;;;;5046105;28;87488;-36
2022/10/16 01:41:46;;;;;;;;;;;12.10;64.10;;;;;;5043994;28;86411;-36
2022/10/16 01:44:44;;;;;;;;;;;12.10;64.00;;;;;;5043424;27;86948;-36
2022/10/16 01:47:10;;;;;;;;;;;12.10;64.00;;;;;;5019029;28;87821;-36
2022/10/16 01:49:37;;;;;;;;;;;12.10;64.00;;;;;;5042899;28;88047;-36
2022/10/16 01:52:05;;;;;;;;;;;12.10;64.00;;;;;;5043514;27;88257;-36
2022/10/16 01:54:32;;;;;;;;;;;12.00;64.00;;;;;;5042472;28;87358;-36
2022/10/16 01:56:58;;;;;;;;;;;12.00;64.00;;;;;;5042845;28;87139;-36
2022/10/16 01:59:25;;;;;;;;;;;12.00;63.90;;;;;;5042812;27;87303;-35
2022/10/16 02:01:54;;;;;;;;;;;12.00;64.00;;;;;;5045906;28;88138;-36
2022/10/16 02:04:34;;;;;;;;;;;12.00;63.90;;;;;;5042973;27;87460;-36
2022/10/16 02:06:59;;;;;;;;;;;12.00;64.00;;;;;;5043140;28;87491;-36
2022/10/16 02:09:25;;;;;;;;;;;12.00;64.00;;;;;;5043081;28;87026;-36
2022/10/16 02:11:53;;;;;;;;;;;12.00;64.10;;;;;;5043207;28;87471;-37
2022/10/16 02:14:19;;;;;;;;;;;11.90;64.00;;;;;;5041922;28;88986;-36
2022/10/16 02:16:46;;;;;;;;;;;11.90;64.10;;;;;;5043111;28;87106;-36
2022/10/16 02:19:16;;;;;;;;;;;11.90;63.90;;;;;;5042942;27;87214;-36
2022/10/16 02:21:49;;;;;;;;;;;11.90;63.90;;;;;;5045615;28;87201;-36
2022/10/16 02:24:28;;;;;;;;;;;11.90;64.00;;;;;;5042271;27;87016;-37
2022/10/16 02:27:02;;;;;;;;;;;11.90;64.00;;;;;;5042748;28;88103;-36
2022/10/16 02:29:28;;;;;;;;;;;11.80;63.80;;;;;;5042768;28;87126;-37
2022/10/16 02:31:56;;;;;;;;;;;11.80;64.00;;;;;;5043413;28;86941;-36
2022/10/16 02:34:23;;;;;;;;;;;11.80;63.90;;;;;;5042119;28;87958;-36
2022/10/16 02:36:50;;;;;;;;;;;11.80;64.00;;;;;;5042620;28;87037;-37
2022/10/16 02:39:16;;;;;;;;;;;11.80;63.90;;;;;;5042244;27;87826;-36
2022/10/16 02:41:42;;;;;;;;;;;11.80;63.90;;;;;;5042260;28;88258;-37
2022/10/16 02:44:08;;;;;;;;;;;11.80;63.90;;;;;;5045758;28;87161;-36
2022/10/16 02:46:33;;;;;;;;;;;11.80;63.80;;;;;;5042373;28;88180;-36
2022/10/16 02:48:59;;;;;;;;;;;11.80;63.90;;;;;;5042610;28;87133;-36
2022/10/16 02:51:24;;;;;;;;;;;11.80;63.80;;;;;;5042701;28;87395;-36
2022/10/16 02:53:50;;;;;;;;;;;11.80;63.90;;;;;;5041994;28;87628;-37
2022/10/16 02:56:15;;;;;;;;;;;11.70;64.40;;;;;;5043051;28;86661;-36
2022/10/16 02:58:41;;;;;;;;;;;11.70;63.80;;;;;;5042725;28;87483;-36
2022/10/16 03:01:06;;;;;;;;;;;11.70;63.80;;;;;;5042232;28;88392;-36
2022/10/16 03:03:32;;;;;;;;;;;11.70;63.90;;;;;;5041679;28;88103;-36
2022/10/16 03:05:57;;;;;;;;;;;11.70;63.90;;;;;;5045119;28;88467;-36
2022/10/16 03:08:24;;;;;;;;;;;11.70;63.80;;;;;;5042441;27;87003;-36
2022/10/16 03:10:51;;;;;;;;;;;11.60;63.70;;;;;;5046027;27;87357;-36
2022/10/16 03:13:16;;;;;;;;;;;11.60;63.80;;;;;;5045482;28;87902;-36
2022/10/16 03:15:43;;;;;;;;;;;11.60;63.70;;;;;;5045850;28;87179;-36
2022/10/16 03:18:08;;;;;;;;;;;11.60;63.80;;;;;;5045842;27;87256;-36
2022/10/16 03:20:34;;;;;;;;;;;11.60;63.80;;;;;;5046320;28;87142;-36
2022/10/16 03:22:59;;;;;;;;;;;11.60;63.90;;;;;;5045254;28;87552;-36
2022/10/16 03:25:25;;;;;;;;;;;11.60;63.80;;;;;;5045770;28;87645;-36
2022/10/16 03:27:50;;;;;;;;;;;11.50;63.70;;;;;;5047482;28;89140;-36
2022/10/16 03:30:16;;;;;;;;;;;11.60;63.90;;;;;;5045650;28;88475;-36
2022/10/16 03:32:42;;;;;;;;;;;11.60;63.80;;;;;;5045390;28;87950;-36
2022/10/16 03:35:07;;;;;;;;;;;11.50;63.60;;;;;;5045630;28;87585;-36
2022/10/16 03:37:33;;;;;;;;;;;11.50;63.70;;;;;;5045530;27;87364;-36
2022/10/16 03:39:59;;;;;;;;;;;11.50;63.60;;;;;;5045082;28;88449;-36
2022/10/16 03:42:24;;;;;;;;;;;11.50;63.80;;;;;;5045442;28;87160;-36
2022/10/16 03:44:50;;;;;;;;;;;11.50;63.80;;;;;;5045835;28;88107;-36
2022/10/16 03:47:15;;;;;;;;;;;11.50;63.70;;;;;;5045087;28;88209;-36
2022/10/16 03:49:41;;;;;;;;;;;11.50;63.60;;;;;;5048052;28;87028;-36
2022/10/16 03:52:06;;;;;;;;;;;11.40;63.70;;;;;;5044350;28;89069;-36
2022/10/16 03:54:32;;;;;;;;;;;11.40;63.70;;;;;;5045313;28;87252;-36
2022/10/16 03:56:57;;;;;;;;;;;11.40;63.80;;;;;;5045252;28;86968;-36
2022/10/16 03:59:23;;;;;;;;;;;11.40;63.70;;;;;;5044828;28;88024;-35
2022/10/16 04:01:48;;;;;;;;;;;11.40;63.80;;;;;;5045243;28;87023;-36
2022/10/16 04:04:14;;;;;;;;;;;11.40;63.70;;;;;;5045060;28;87768;-36
2022/10/16 04:06:39;;;;;;;;;;;11.40;63.70;;;;;;5044835;28;87640;-36
2022/10/16 04:09:05;;;;;;;;;;;11.40;63.70;;;;;;5045686;28;86046;-36
2022/10/16 04:11:30;;;;;;;;;;;11.40;64.30;;;;;;5047653;28;87415;-36
2022/10/16 04:13:56;;;;;;;;;;;11.30;63.70;;;;;;5045084;28;87225;-36
2022/10/16 04:16:21;;;;;;;;;;;11.30;63.80;;;;;;5044299;28;87927;-36
2022/10/16 04:18:47;;;;;;;;;;;11.30;63.70;;;;;;5044214;28;88225;-36
2022/10/16 04:21:12;;;;;;;;;;;11.30;63.70;;;;;;5044017;28;87094;-36
2022/10/16 04:23:38;;;;;;;;;;;11.30;63.70;;;;;;5044677;28;87251;-36
2022/10/16 04:26:03;;;;;;;;;;;11.20;63.60;;;;;;5044514;28;88567;-36
2022/10/16 04:28:29;;;;;;;;;;;11.20;63.70;;;;;;5044650;28;87154;-36
2022/10/16 04:30:54;;;;;;;;;;;11.20;63.60;;;;;;5047341;28;87791;-36
2022/10/16 04:33:20;;;;;;;;;;;11.20;63.60;;;;;;5044950;28;86528;-36
2022/10/16 04:35:45;;;;;;;;;;;11.20;63.80;;;;;;5043258;28;88356;-36
2022/10/16 04:38:11;;;;;;;;;;;11.20;63.70;;;;;;5043979;28;88169;-36
2022/10/16 04:40:36;;;;;;;;;;;11.20;63.60;;;;;;5043924;28;88085;-36
2022/10/16 04:43:03;;;;;;;;;;;11.20;63.70;;;;;;5044395;28;88421;-36
2022/10/16 04:45:28;;;;;;;;;;;11.20;63.70;;;;;;5044239;28;87608;-36
2022/10/16 04:47:56;;;;;;;;;;;11.20;63.60;;;;;;5044372;28;87054;-36
2022/10/16 04:50:22;;;;;;;;;;;11.10;63.60;;;;;;5044399;28;87633;-36
2022/10/16 04:52:47;;;;;;;;;;;11.10;63.60;;;;;;5046917;28;88060;-36
2022/10/16 04:55:13;;;;;;;;;;;11.10;63.60;;;;;;5044206;28;88531;-36
2022/10/16 04:57:38;;;;;;;;;;;11.10;63.80;;;;;;5044407;28;87445;-36
2022/10/16 05:00:04;;;;;;;;;;;11.10;63.60;;;;;;5044255;28;87251;-36
2022/10/16 05:02:30;;;;;;;;;;;11.00;63.60;;;;;;5044286;27;87452;-37
2022/10/16 05:04:55;;;;;;;;;;;11.00;63.50;;;;;;5042828;28;89156;-36
2022/10/16 05:07:20;;;;;;;;;;;11.10;63.60;;;;;;5044485;28;88072;-36
2022/10/16 05:09:46;;;;;;;;;;;11.00;63.60;;;;;;5044101;28;87122;-36
2022/10/16 05:12:12;;;;;;;;;;;11.00;63.50;;;;;;5043736;28;88221;-36
2022/10/16 05:14:37;;;;;;;;;;;11.10;63.60;;;;;;5047012;28;87151;-36
2022/10/16 05:17:03;;;;;;;;;;;11.00;63.60;;;;;;5043719;28;88123;-35
2022/10/16 05:19:28;;;;;;;;;;;11.00;63.50;;;;;;5043764;28;87158;-36
2022/10/16 05:21:54;;;;;;;;;;;11.00;63.50;;;;;;5044345;28;87440;-36
2022/10/16 05:24:19;;;;;;;;;;;10.90;63.60;;;;;;5043104;28;88180;-36
2022/10/16 05:26:45;;;;;;;;;;;11.00;63.80;;;;;;5043843;28;87053;-36
2022/10/16 05:29:10;;;;;;;;;;;11.00;63.50;;;;;;5043193;28;87898;-36
2022/10/16 05:31:36;;;;;;;;;;;11.00;63.70;;;;;;5043379;27;88127;-36
2022/10/16 05:34:01;;;;;;;;;;;11.00;63.50;;;;;;5043654;28;87110;-36
2022/10/16 05:36:27;;;;;;;;;;;10.90;63.50;;;;;;5046238;28;87519;-36
2022/10/16 05:38:53;;;;;;;;;;;10.90;63.40;;;;;;5043565;28;86980;-36
2022/10/16 05:41:23;;;;;;;;;;;10.90;63.40;;;;;;5043680;27;87335;-37
2022/10/16 05:43:49;;;;;;;;;;;10.90;63.40;;;;;;5043086;28;88022;-36
2022/10/16 05:46:14;;;;;;;;;;;10.90;63.50;;;;;;5044206;28;86388;-36
2022/10/16 05:48:40;;;;;;;;;;;10.90;63.40;;;;;;5043352;27;86977;-36
2022/10/16 05:51:06;;;;;;;;;;;10.90;63.50;;;;;;5043242;28;87285;-36
2022/10/16 05:53:33;;;;;;;;;;;10.90;63.50;;;;;;5042586;28;88026;-35
2022/10/16 05:55:59;;;;;;;;;;;10.90;63.40;;;;;;5043596;27;88868;-36
2022/10/16 05:58:25;;;;;;;;;;;10.90;63.40;;;;;;5045909;28;88014;-36
2022/10/16 06:00:55;;;;;;;;;;;10.90;63.40;;;;;;5043410;28;87105;-36
2022/10/16 06:03:20;;;;;;;;;;;10.90;63.40;;;;;;5042748;28;88029;-36
2022/10/16 06:05:46;;;;;;;;;;;10.80;63.40;;;;;;5043347;28;87195;-36
2022/10/16 06:08:11;;;;;;;;;;;10.90;63.50;;;;;;5043186;28;87382;-36
2022/10/16 06:10:37;;;;;;;;;;;10.80;63.40;;;;;;5043458;28;86541;-36
2022/10/16 06:13:02;;;;;;;;;;;10.80;63.40;;;;;;5043287;28;87100;-36
2022/10/16 06:15:28;;;;;;;;;;;10.80;63.40;;;;;;5043297;28;87537;-36
2022/10/16 06:17:53;;;;;;;;;;;10.80;63.50;;;;;;5040135;28;92341;-36
2022/10/16 06:20:19;;;;;;;;;;;10.80;63.50;;;;;;5046032;28;86712;-36
2022/10/16 06:22:44;;;;;;;;;;;10.80;63.40;;;;;;5042488;28;87381;-37
2022/10/16 06:25:10;;;;;;;;;;;10.80;63.50;;;;;;5042720;28;87216;-36
2022/10/16 06:27:35;;;;;;;;;;;10.80;63.40;;;;;;5042963;28;87312;-36
2022/10/16 06:30:01;;;;;;;;;;;10.80;63.40;;;;;;5042807;28;87983;-36
2022/10/16 06:32:27;;;;;;;;;;;10.80;63.40;;;;;;5043003;28;87039;-36
2022/10/16 06:34:53;;;;;;;;;;;10.80;63.40;;;;;;5043153;27;87419;-36
2022/10/16 06:37:18;;;;;;;;;;;10.80;63.50;;;;;;5042380;28;87994;-36
2022/10/16 06:39:43;;;;;;;;;;;10.80;63.60;;;;;;5045828;28;87095;-36
2022/10/16 06:42:09;;;;;;;;;;;10.80;63.50;;;;;;5041691;28;88912;-36
2022/10/16 06:44:34;;;;;;;;;;;10.80;63.60;;;;;;5042199;28;87065;-36
2022/10/16 06:47:00;;;;;;;;;;;10.80;63.60;;;;;;5042781;28;87882;-36
2022/10/16 06:49:25;;;;;;;;;;;10.80;63.50;;;;;;5042137;28;88300;-36
2022/10/16 06:51:51;;;;;;;;;;;10.80;63.60;;;;;;5042838;28;87006;-36
2022/10/16 06:54:17;;;;;;;;;;;10.70;63.60;;;;;;5042586;28;86831;-36
2022/10/16 06:56:43;;;;;;;;;;;10.80;63.70;;;;;;5042202;28;88077;-36
2022/10/16 06:59:08;;;;;;;;;;;10.80;63.60;;;;;;5042917;28;86308;-36
2022/10/16 07:01:34;;;;;;;;;;;10.70;63.60;;;;;;5045120;27;86965;-36
2022/10/16 07:04:00;;;;;;;;;;;10.70;63.80;;;;;;5042170;28;87145;-36
2022/10/16 07:06:26;;;;;;;;;;;10.70;63.90;;;;;;5042004;27;88887;-36
2022/10/16 07:08:52;;;;;;;;;;;10.70;63.80;;;;;;5041952;28;87224;-37
2022/10/16 07:11:18;;;;;;;;;;;10.70;63.90;;;;;;5042223;28;87126;-35
2022/10/16 07:13:44;;;;;;;;;;;10.70;64.00;;;;;;5042416;27;87189;-36
2022/10/16 07:16:11;;;;;;;;;;;10.70;64.00;;;;;;5041865;28;88102;-36
2022/10/16 07:18:40;;;;;;;;;;;10.60;64.00;;;;;;5042042;28;87115;-36
2022/10/16 07:21:09;;;;;;;;;;;10.60;64.70;;;;;;5042321;27;87399;-36
2022/10/16 07:23:35;;;;;;;;;;;10.70;64.10;;;;;;5044825;28;87299;-36
2022/10/16 07:26:01;;;;;;;;;;;10.60;64.10;;;;;;5042337;28;86995;-36
2022/10/16 07:28:26;;;;;;;;;;;10.60;64.20;;;;;;5041776;28;88181;-36
2022/10/16 07:30:52;;;;;;;;;;;10.60;64.40;;;;;;5041576;28;88052;-36
2022/10/16 07:33:18;;;;;;;;;;;10.60;64.40;;;;;;5041678;27;88286;-36
2022/10/16 07:35:50;;;;;;;;;;;10.60;64.50;;;;;;5041697;28;88447;-36
2022/10/16 07:38:15;;;;;;;;;;;10.60;64.50;;;;;;5041773;28;87029;-36
2022/10/16 07:40:41;;;;;;;;;;;10.50;64.40;;;;;;5042118;28;87602;-36
2022/10/16 07:43:06;;;;;;;;;;;10.60;64.60;;;;;;5041487;28;88216;-36
2022/10/16 07:45:32;;;;;;;;;;;10.60;64.60;;;;;;5045033;28;87048;-36
2022/10/16 07:47:57;;;;;;;;;;;10.60;64.70;;;;;;5041869;28;87514;-35
2022/10/16 07:50:23;;;;;;;;;;;10.60;64.80;;;;;;5041857;28;87257;-36
2022/10/16 07:52:48;;;;;;;;;;;10.60;65.30;;;;;;5041700;28;87398;-36
2022/10/16 07:55:14;;;;;;;;;;;10.60;64.80;;;;;;5040686;27;88978;-36
2022/10/16 07:57:39;;;;;;;;;;;10.50;64.80;;;;;;5044917;28;87129;-36
2022/10/16 08:00:05;;;;;;;;;;;10.60;64.70;;;;;;5045062;28;87371;-36
2022/10/16 08:02:31;;;;;;;;;;;10.50;64.80;;;;;;5044567;28;87210;-36
2022/10/16 08:04:56;;;;;;;;;;;10.60;64.80;;;;;;5045244;28;87025;-36
2022/10/16 08:07:22;;;;;;;;;;;10.60;64.80;;;;;;5047869;28;87586;-36
2022/10/16 08:09:51;;;;;;;;;;;10.60;64.90;;;;;;5045082;28;87131;-36
2022/10/16 08:12:17;;;;;;;;;;;10.60;64.90;;;;;;5045389;27;86361;-36
2022/10/16 08:14:42;;;;;;;;;;;10.50;65.60;;;;;;5044719;28;87764;-36
2022/10/16 08:17:08;;;;;;;;;;;10.60;65.10;;;;;;5044698;28;87114;-36
2022/10/16 08:19:34;;;;;;;;;;;10.60;65.10;;;;;;5044238;28;88496;-36
2022/10/16 08:22:00;;;;;;;;;;;10.50;65.00;;;;;;5044534;28;87160;-36
2022/10/16 08:24:26;;;;;;;;;;;10.60;65.00;;;;;;5044195;28;87283;-36
2022/10/16 08:26:53;;;;;;;;;;;10.60;65.10;;;;;;5047460;27;87407;-36
2022/10/16 08:29:18;;;;;;;;;;;10.60;65.10;;;;;;5044631;28;87178;-36
2022/10/16 08:31:44;;;;;;;;;;;10.60;65.00;;;;;;5044709;28;87542;-36
2022/10/16 08:34:09;;;;;;;;;;;10.60;65.10;;;;;;5044408;28;88162;-36
2022/10/16 08:36:35;;;;;;;;;;;10.60;65.30;;;;;;5044999;28;86444;-36
2022/10/16 08:39:01;;;;;;;;;;;10.60;65.40;;;;;;5044616;27;86977;-37
2022/10/16 08:41:36;;;;;;;;;;;10.60;65.30;;;;;;5044339;28;88093;-36
2022/10/16 08:44:02;;;;;;;;;;;10.60;65.30;;;;;;5043852;28;88481;-35
2022/10/16 08:46:45;;;;;;;;;;;10.60;65.20;;;;;;5044470;27;88427;-36
2022/10/16 08:49:13;;;;;;;;;;;10.60;65.40;;;;;;5046970;28;88135;-36
2022/10/16 08:51:38;;;;;;;;;;;10.60;65.40;;;;;;5044379;27;87422;-36
2022/10/16 08:54:05;;;;;;;;;;;10.60;65.30;;;;;;5043679;28;88075;-36
2022/10/16 08:56:31;;;;;;;;;;;10.60;65.40;;;;;;5044311;28;87102;-37
2022/10/16 08:58:57;;;;;;;;;;;10.60;65.40;;;;;;5044185;28;87478;-35
2022/10/16 09:01:23;;;;;;;;;;;10.70;65.30;;;;;;5044501;28;87489;-36
2022/10/16 09:04:07;;;;;;;;;;;10.70;65.30;;;;;;5044115;28;87225;-35
2022/10/16 09:06:42;;;;;;;;;;;10.70;65.30;;;;;;5044002;27;87382;-36
2022/10/16 09:09:26;;;;;;;;;;;10.70;65.30;;;;;;5043178;28;88620;-35
2022/10/16 09:11:57;;;;;;;;;;;10.70;65.30;;;;;;5047091;28;87109;-35
2022/10/16 09:14:23;;;;;;;;;;;10.70;65.40;;;;;;5043778;28;88012;-36
2022/10/16 09:16:52;;;;;;;;;;;10.70;65.30;;;;;;5043974;28;86991;-36
2022/10/16 09:19:24;;;;;;;;;;;10.70;65.40;;;;;;5043894;28;87379;-36
2022/10/16 09:21:50;;;;;;;;;;;10.70;65.40;;;;;;5043266;28;87964;-35
2022/10/16 09:24:20;;;;;;;;;;;10.80;65.40;;;;;;5043139;28;86970;-36
2022/10/16 09:26:46;;;;;;;;;;;10.80;65.50;;;;;;5044205;28;87487;-36
2022/10/16 09:29:12;;;;;;;;;;;10.80;65.40;;;;;;5043505;28;87295;-36
2022/10/16 09:31:38;;;;;;;;;;;10.80;65.40;;;;;;5043824;28;87090;-36
2022/10/16 09:34:06;;;;;;;;;;;10.80;65.40;;;;;;5045882;27;88042;-37
2022/10/16 09:36:36;;;;;;;;;;;10.80;65.50;;;;;;5043280;28;86990;-36
2022/10/16 09:39:14;;;;;;;;;;;10.80;65.50;;;;;;5043459;28;87400;-36
2022/10/16 09:41:41;;;;;;;;;;;10.80;65.50;;;;;;5043424;28;88136;-37
2022/10/16 09:44:22;;;;;;;;;;;10.80;65.40;;;;;;5043556;28;87087;-36
2022/10/16 09:46:47;;;;;;;;;;;10.90;65.40;;;;;;5043543;28;87285;-36
2022/10/16 09:49:24;;;;;;;;;;;10.90;65.40;;;;;;5043072;28;87122;-36
2022/10/16 09:51:50;;;;;;;;;;;10.90;65.40;;;;;;5044000;28;86112;-36
2022/10/16 09:54:20;;;;;;;;;;;10.90;65.50;;;;;;5043203;27;87127;-36
2022/10/16 09:56:49;;;;;;;;;;;10.90;65.50;;;;;;5045778;28;88077;-36
2022/10/16 09:59:15;;;;;;;;;;;11.00;65.50;;;;;;5042615;27;87913;-36
2022/10/16 10:01:44;;;;;;;;;;;10.90;65.60;;;;;;5042819;28;87320;-36
2022/10/16 10:04:10;;;;;;;;;;;11.00;65.60;;;;;;5043154;28;87753;-36
2022/10/16 10:06:46;;;;;;;;;;;11.00;65.60;;;;;;5043451;28;87342;-36
2022/10/16 10:09:17;;;;;;;;;;;11.00;65.70;;;;;;5042635;28;88569;-35
2022/10/16 10:11:45;;;;;;;;;;;11.00;65.60;;;;;;5043292;28;87158;-36
2022/10/16 10:14:17;;;;;;;;;;;11.00;65.60;;;;;;5042982;28;87406;-36
2022/10/16 10:16:42;;;;;;;;;;;11.00;65.60;;;;;;5043148;28;87276;-35
2022/10/16 10:19:13;;;;;;;;;;;11.00;65.60;;;;;;5045174;28;87004;-36
2022/10/16 10:21:39;;;;;;;;;;;11.00;65.60;;;;;;5042775;28;88184;-36
2022/10/16 10:24:04;;;;;;;;;;;11.00;65.70;;;;;;5042171;28;88051;-36
2022/10/16 10:26:31;;;;;;;;;;;11.00;65.70;;;;;;5042958;27;88404;-36
2022/10/16 10:28:57;;;;;;;;;;;11.00;65.80;;;;;;5042303;28;88257;-36
2022/10/16 10:31:36;;;;;;;;;;;11.00;65.70;;;;;;5043005;28;87154;-35
2022/10/16 10:34:11;;;;;;;;;;;11.10;65.80;;;;;;5042835;27;86933;-36
2022/10/16 10:36:38;;;;;;;;;;;11.10;65.70;;;;;;5042445;28;87683;-36
2022/10/16 10:39:06;;;;;;;;;;;11.10;65.80;;;;;;5045726;28;87119;-36
2022/10/16 10:41:43;;;;;;;;;;;11.10;65.70;;;;;;5042794;28;87409;-36
2022/10/16 10:44:09;;;;;;;;;;;11.10;65.60;;;;;;5042702;28;87215;-36
2022/10/16 10:46:41;;;;;;;;;;;11.10;65.60;;;;;;5042817;28;87461;-36
2022/10/16 10:49:30;;;;;;;;;;;11.10;65.60;;;;;;5041762;28;88263;-36
2022/10/16 10:52:01;;;;;;;;;;;11.20;65.60;;;;;;5022183;28;87011;-36
2022/10/16 10:54:27;;;;;;;;;;;11.20;65.50;;;;;;5042350;27;87349;-36
2022/10/16 10:57:06;;;;;;;;;;;11.20;65.50;;;;;;5042339;28;88188;-36
2022/10/16 10:59:50;;;;;;;;;;;11.20;65.50;;;;;;5042413;28;87120;-37
2022/10/16 11:02:34;;;;;;;;;;;11.20;65.40;;;;;;5044942;27;87633;-37
2022/10/16 11:05:02;;;;;;;;;;;11.30;65.30;;;;;;5042416;28;87033;-36
2022/10/16 11:07:31;;;;;;;;;;;11.20;65.20;;;;;;5042902;28;87502;-36
2022/10/16 11:10:11;;;;;;;;;;;11.30;65.20;;;;;;5041968;28;88025;-36
2022/10/16 11:12:42;;;;;;;;;;;11.30;65.20;;;;;;5042483;28;87112;-36
2022/10/16 11:15:14;;;;;;;;;;;11.30;65.20;;;;;;5042036;27;87915;-35
2022/10/16 11:17:41;;;;;;;;;;;11.40;65.10;;;;;;5041845;28;88010;-36
2022/10/16 11:20:22;;;;;;;;;;;11.40;65.10;;;;;;5042377;28;86964;-36
2022/10/16 11:22:59;;;;;;;;;;;11.40;65.10;;;;;;5042195;28;87529;-36
2022/10/16 11:25:29;;;;;;;;;;;11.40;65.00;;;;;;5044737;28;88140;-36
2022/10/16 11:28:00;;;;;;;;;;;11.40;65.00;;;;;;5042259;27;87398;-36
2022/10/16 11:30:27;;;;;;;;;;;11.50;65.00;;;;;;5043406;28;87377;-36
2022/10/16 11:33:08;;;;;;;;;;;11.50;64.90;;;;;;5046078;28;86396;-36
2022/10/16 11:35:33;;;;;;;;;;;11.50;64.80;;;;;;5045666;28;86937;-36
2022/10/16 11:38:01;;;;;;;;;;;11.50;64.90;;;;;;5044899;28;88071;-36
2022/10/16 11:40:37;;;;;;;;;;;11.50;65.50;;;;;;5044702;28;87953;-36
2022/10/16 11:43:10;;;;;;;;;;;11.60;64.70;;;;;;5045412;27;88371;-36
2022/10/16 11:45:39;;;;;;;;;;;11.50;64.80;;;;;;5045227;28;88155;-36
2022/10/16 11:48:23;;;;;;;;;;;11.60;64.70;;;;;;5048277;28;87329;-36
2022/10/16 11:50:52;;;;;;;;;;;11.60;64.50;;;;;;5045001;28;88200;-36
2022/10/16 11:53:23;;;;;;;;;;;11.60;64.20;;;;;;5045054;27;87133;-36
2022/10/16 11:55:49;;;;;;;;;;;11.60;64.30;;;;;;5045113;28;87383;-37
2022/10/16 11:58:35;;;;;;;;;;;11.60;64.30;;;;;;5045279;28;86304;-36
2022/10/16 12:01:20;;;;;;;;;;;11.60;64.20;;;;;;5045104;28;87025;-35
2022/10/16 12:03:45;;;;;;;;;;;11.70;64.20;;;;;;5045129;27;87390;-36
2022/10/16 12:06:29;;;;;;;;;;;11.70;64.20;;;;;;5044302;28;88985;-36
2022/10/16 12:08:56;;;;;;;;;;;11.70;64.10;;;;;;5045082;27;87080;-36
2022/10/16 12:11:24;;;;;;;;;;;11.70;64.10;;;;;;5047283;28;87394;-36
2022/10/16 12:13:50;;;;;;;;;;;11.80;64.30;;;;;;5045061;28;87205;-36
2022/10/16 12:16:15;;;;;;;;;;;11.80;64.30;;;;;;5045154;27;87366;-36
2022/10/16 12:18:42;;;;;;;;;;;11.80;64.00;;;;;;5044681;28;88062;-36
2022/10/16 12:21:09;;;;;;;;;;;11.80;63.90;;;;;;5045150;28;87123;-36
2022/10/16 12:23:38;;;;;;;;;;;11.80;63.90;;;;;;5044904;27;87371;-36
2022/10/16 12:26:04;;;;;;;;;;;11.80;63.80;;;;;;5044141;28;88221;-36
2022/10/16 12:28:34;;;;;;;;;;;11.80;63.70;;;;;;5044763;28;87077;-36
2022/10/16 12:31:01;;;;;;;;;;;11.80;63.80;;;;;;5044144;27;88066;-36
2022/10/16 12:33:28;;;;;;;;;;;11.90;63.80;;;;;;5047262;28;88134;-36
2022/10/16 12:35:54;;;;;;;;;;;11.90;63.70;;;;;;5044790;27;87356;-36
2022/10/16 12:38:24;;;;;;;;;;;11.90;63.70;;;;;;5044176;28;87953;-36
2022/10/16 12:41:04;;;;;;;;;;;11.90;63.50;;;;;;5044546;28;87063;-36
2022/10/16 12:43:35;;;;;;;;;;;11.90;63.70;;;;;;5044142;27;87442;-36
2022/10/16 12:46:10;;;;;;;;;;;11.90;63.50;;;;;;5044124;28;88036;-37
2022/10/16 12:48:39;;;;;;;;;;;11.90;63.40;;;;;;5045035;28;86381;-36
2022/10/16 12:51:12;;;;;;;;;;;12.00;63.60;;;;;;5044249;27;87059;-36
2022/10/16 12:53:37;;;;;;;;;;;12.00;63.70;;;;;;5046989;28;88009;-37
2022/10/16 12:56:23;;;;;;;;;;;12.00;63.50;;;;;;5043414;27;87869;-36
2022/10/16 12:58:52;;;;;;;;;;;12.00;63.40;;;;;;5043923;28;88219;-36
2022/10/16 13:01:40;;;;;;;;;;;12.00;62.90;;;;;;5044115;28;87133;-36
2022/10/16 13:04:06;;;;;;;;;;;12.10;63.10;;;;;;5023542;27;87761;-36
2022/10/16 13:06:43;;;;;;;;;;;12.10;63.40;;;;;;5043768;28;88091;-36
2022/10/16 13:09:27;;;;;;;;;;;12.10;63.20;;;;;;5044263;28;86971;-36
2022/10/16 13:12:07;;;;;;;;;;;12.10;63.50;;;;;;5043918;27;87251;-35
2022/10/16 13:14:32;;;;;;;;;;;12.20;63.40;;;;;;5044240;28;87323;-36
2022/10/16 13:17:17;;;;;;;;;;;12.20;63.00;;;;;;5046862;28;86961;-36
2022/10/16 13:19:54;;;;;;;;;;;12.20;63.10;;;;;;5043840;28;88022;-36
2022/10/16 13:22:26;;;;;;;;;;;12.20;62.70;;;;;;5043043;28;87974;-36
2022/10/16 13:24:55;;;;;;;;;;;12.20;62.60;;;;;;5043315;27;88341;-36
2022/10/16 13:27:20;;;;;;;;;;;12.20;62.30;;;;;;5043730;28;88211;-37
2022/10/16 13:29:51;;;;;;;;;;;12.20;62.40;;;;;;5043841;28;87118;-39
2022/10/16 13:32:17;;;;;;;;;;;12.20;62.60;;;;;;5043682;27;87564;-36
2022/10/16 13:35:01;;;;;;;;;;;12.30;62.30;;;;;;5043588;28;88320;-36
2022/10/16 13:37:27;;;;;;;;;;;12.30;62.40;;;;;;5043776;28;87200;-37
2022/10/16 13:40:02;;;;;;;;;;;12.30;62.30;;;;;;5046753;28;87433;-36
2022/10/16 13:42:28;;;;;;;;;;;12.30;61.90;;;;;;5043677;28;86894;-36
2022/10/16 13:44:55;;;;;;;;;;;12.30;61.90;;;;;;5043686;28;86928;-36
2022/10/16 13:47:24;;;;;;;;;;;12.30;62.40;;;;;;5042540;28;88880;-36
2022/10/16 13:50:00;;;;;;;;;;;12.30;62.30;;;;;;5043325;28;87154;-37
2022/10/16 13:52:26;;;;;;;;;;;12.40;62.20;;;;;;5043555;27;87455;-36
2022/10/16 13:54:51;;;;;;;;;;;12.40;62.30;;;;;;5041821;28;87262;-36
2022/10/16 13:57:17;;;;;;;;;;;12.40;61.90;;;;;;5043417;28;87121;-36
2022/10/16 13:59:43;;;;;;;;;;;12.40;61.80;;;;;;5043420;28;87430;-36
2022/10/16 14:02:21;;;;;;;;;;;12.40;62.00;;;;;;5045669;28;87504;-36
2022/10/16 14:04:47;;;;;;;;;;;12.40;61.60;;;;;;5044123;27;86635;-36
2022/10/16 14:07:23;;;;;;;;;;;12.40;62.20;;;;;;5042979;28;88590;-36
2022/10/16 14:09:50;;;;;;;;;;;12.50;62.60;;;;;;5043387;28;86942;-36
2022/10/16 14:12:16;;;;;;;;;;;12.50;62.00;;;;;;5042617;27;87846;-36
2022/10/16 14:14:45;;;;;;;;;;;12.50;61.60;;;;;;5042825;28;87277;-37
2022/10/16 14:17:15;;;;;;;;;;;12.50;62.20;;;;;;5042847;28;87608;-36
2022/10/16 14:19:45;;;;;;;;;;;12.50;62.30;;;;;;5043482;28;86971;-36
2022/10/16 14:22:29;;;;;;;;;;;12.50;61.80;;;;;;5042478;28;88232;-36